Time;durP1;ratioP1;P1;durP2;ratioP2;P2;SDS_P1;SDS_P2;PMS_P1;PMS_P2;Temp;Humidity;BMP_temperature;BMP_pressure;BME280_temperature;BME280_humidity;BME280_pressure;Samples;Min_cycle;Max_cycle;Signal;HPM_P1;HPM_P2
2023/12/02 00:00:59;;;;;;;56.13;8.88;;;;;;;16.05;61.86;98812.09;4897993;29;20134;-82
2023/12/02 00:03:29;;;;;;;39.67;8.35;;;;;;;16.09;61.85;98821.31;4894467;29;20055;-82
2023/12/02 00:05:56;;;;;;;33.85;7.57;;;;;;;15.79;62.70;98776.41;4879135;29;20172;-81
2023/12/02 00:08:23;;;;;;;39.75;7.35;;;;;;;15.95;63.37;98824.06;4885378;29;20048;-83
2023/12/02 00:10:54;;;;;;;42.67;7.68;;;;;;;15.88;62.95;98742.22;4886234;28;20058;-83
2023/12/02 00:13:26;;;;;;;36.90;8.13;;;;;;;16.13;62.91;98785.88;4880552;29;20065;-84
2023/12/02 00:15:53;;;;;;;43.75;7.82;;;;;;;15.95;63.09;98751.81;4879464;29;20486;-82
2023/12/02 00:18:25;;;;;;;32.10;7.85;;;;;;;15.98;63.35;98751.38;4880486;29;20406;-84
2023/12/02 00:20:59;;;;;;;50.90;8.10;;;;;;;16.09;63.55;98762.41;4887533;29;20059;-82
2023/12/02 00:23:29;;;;;;;43.33;8.40;;;;;;;16.09;63.77;98784.66;4849681;29;20312;-81
2023/12/02 00:25:58;;;;;;;43.38;6.45;;;;;;;15.82;64.38;98792.03;4864780;29;20055;-82
2023/12/02 00:28:33;;;;;;;38.38;6.75;;;;;;;15.65;64.66;98729.34;4863209;29;20814;-82
2023/12/02 00:31:01;;;;;;;41.92;9.25;;;;;;;15.84;64.62;98815.91;4841503;29;20132;-83
2023/12/02 00:33:33;;;;;;;42.17;7.88;;;;;;;15.72;64.94;98784.47;4852866;29;20342;-82
2023/12/02 00:36:05;;;;;;;35.17;7.18;;;;;;;16.00;64.53;98791.31;4856718;29;20043;-83
2023/12/02 00:38:44;;;;;;;34.95;8.30;;;;;;;15.88;64.44;98769.78;4840796;29;20281;-83
2023/12/02 00:41:11;;;;;;;42.13;9.15;;;;;;;16.03;64.62;98783.66;4878339;29;20516;-81
2023/12/02 00:43:38;;;;;;;38.35;7.18;;;;;;;16.07;64.64;98796.59;4858798;29;20067;-80
2023/12/02 00:46:08;;;;;;;51.97;8.10;;;;;;;16.22;64.35;98810.53;4857681;29;20091;-82
2023/12/02 00:48:35;;;;;;;38.40;6.85;;;;;;;16.25;64.16;98815.44;4889204;29;20051;-83
2023/12/02 00:51:02;;;;;;;43.95;7.82;;;;;;;16.34;64.18;98808.78;4888162;29;20554;-81
2023/12/02 00:53:29;;;;;;;48.72;9.15;;;;;;;16.32;64.11;98837.63;4887606;29;20051;-82
2023/12/02 00:56:01;;;;;;;32.83;7.40;;;;;;;15.27;64.32;98663.34;4877636;29;20152;-83
2023/12/02 00:58:32;;;;;;;40.15;7.57;;;;;;;16.20;64.07;98800.03;4865680;29;20551;-81
2023/12/02 01:01:08;;;;;;;47.72;9.85;;;;;;;15.53;63.96;98689.06;4834391;29;20142;-82
2023/12/02 01:03:41;;;;;;;38.38;6.75;;;;;;;16.38;64.15;98799.28;4830001;29;20124;-82
2023/12/02 01:06:10;;;;;;;46.80;7.90;;;;;;;15.71;63.74;98649.09;4807382;29;20481;-85
2023/12/02 01:08:37;;;;;;;39.13;8.02;;;;;;;16.54;63.66;98754.25;4836924;29;20051;-83
2023/12/02 01:11:04;;;;;;;41.72;7.03;;;;;;;16.47;63.90;98777.59;4842947;29;20480;-83
2023/12/02 01:13:31;;;;;;;40.90;7.15;;;;;;;16.42;63.93;98754.94;4849459;29;20048;-83
2023/12/02 01:16:07;;;;;;;29.73;6.00;;;;;;;16.51;64.12;98773.44;4853981;29;20405;-84
2023/12/02 01:18:41;;;;;;;37.53;6.82;;;;;;;16.51;64.32;98776.13;4876324;29;20063;-83
2023/12/02 01:21:08;;;;;;;41.47;7.00;;;;;;;16.80;63.64;98791.53;4892559;29;20059;-81
2023/12/02 01:23:43;;;;;;;41.90;6.95;;;;;;;16.78;64.35;98790.94;4841456;29;20644;-83
2023/12/02 01:26:20;;;;;;;29.58;6.97;;;;;;;16.74;64.61;98803.09;4839340;29;20309;-83
2023/12/02 01:28:52;;;;;;;44.25;8.75;;;;;;;16.41;65.09;98757.88;4839227;29;20479;-82
2023/12/02 01:31:19;;;;;;;33.00;5.88;;;;;;;16.60;65.34;98793.53;4855808;29;20522;-81
2023/12/02 01:33:49;;;;;;;35.55;6.07;;;;;;;16.62;65.82;98805.66;4851565;29;20139;-83
2023/12/02 01:36:17;;;;;;;28.45;5.90;;;;;;;16.37;66.12;98754.78;4891258;29;20399;-82
2023/12/02 01:38:46;;;;;;;32.22;6.53;;;;;;;16.72;66.57;98815.06;4892987;29;20067;-84
2023/12/02 01:41:14;;;;;;;20.25;4.57;;;;;;;15.97;67.14;98723.00;4862283;29;20086;-83
2023/12/02 01:43:41;;;;;;;30.27;5.88;;;;;;;16.05;67.56;98729.94;4875926;29;20486;-83
2023/12/02 01:46:17;;;;;;;35.92;6.40;;;;;;;16.45;67.85;98797.34;4901216;29;20107;-82
2023/12/02 01:49:20;;;;;;;21.80;6.00;;;;;;;16.52;68.13;98809.88;4912338;29;20040;-83
2023/12/02 01:52:21;;;;;;;27.20;6.45;;;;;;;16.58;67.79;98792.94;4885557;29;20052;-79
2023/12/02 01:55:18;;;;;;;30.65;5.90;;;;;;;16.49;68.55;98779.00;4874398;29;20114;-84
2023/12/02 01:58:03;;;;;;;24.05;5.35;;;;;;;16.31;68.83;98766.38;4894698;29;20147;-82
2023/12/02 02:01:04;;;;;;;18.30;4.40;;;;;;;16.34;68.40;98771.31;4864095;29;20139;-81
2023/12/02 02:03:56;;;;;;;39.97;6.30;;;;;;;15.98;68.82;98739.88;4903190;29;20060;-80
2023/12/02 02:06:49;;;;;;;32.40;5.15;;;;;;;16.38;68.53;98783.22;4891497;29;20063;-83
2023/12/02 02:09:16;;;;;;;30.20;6.43;;;;;;;16.45;68.46;98775.94;4891745;29;20036;-82
2023/12/02 02:11:48;;;;;;;24.35;3.75;;;;;;;16.34;68.61;98791.91;4903330;29;20059;-83
2023/12/02 02:14:15;;;;;;;33.10;5.15;;;;;;;15.63;69.38;98693.94;4898413;29;20052;-82
2023/12/02 02:16:42;;;;;;;19.30;3.88;;;;;;;16.09;69.62;98767.78;4894073;29;20058;-81
2023/12/02 02:19:10;;;;;;;28.45;4.30;;;;;;;16.06;69.98;98766.34;4921398;29;20058;-84
2023/12/02 02:21:39;;;;;;;21.05;4.30;;;;;;;16.02;69.89;98725.03;4917377;29;20079;-85
2023/12/02 02:24:08;;;;;;;18.70;3.97;;;;;;;16.11;69.58;98750.47;4908349;29;20087;-82
2023/12/02 02:26:34;;;;;;;20.83;3.72;;;;;;;16.01;70.12;98750.13;4913242;29;20678;-83
2023/12/02 02:29:01;;;;;;;12.85;3.05;;;;;;;16.06;70.56;98773.56;4941461;29;20142;-81
2023/12/02 02:31:29;;;;;;;17.33;2.75;;;;;;;15.96;71.29;98758.81;4941457;29;20047;-81
2023/12/02 02:33:58;;;;;;;16.92;3.05;;;;;;;16.02;70.37;98746.44;4917135;29;20055;-82
2023/12/02 02:36:30;;;;;;;16.30;3.20;;;;;;;16.06;70.60;98744.13;4919515;29;20058;-81
2023/12/02 02:38:59;;;;;;;7.85;2.78;;;;;;;15.99;70.68;98746.84;4911083;29;20055;-80
2023/12/02 02:41:26;;;;;;;16.27;4.03;;;;;;;15.95;70.57;98762.53;4914692;29;20048;-81
2023/12/02 02:43:56;;;;;;;9.95;3.10;;;;;;;15.97;70.88;98763.13;4912044;29;20051;-83
2023/12/02 02:46:23;;;;;;;16.50;3.20;;;;;;;15.89;71.26;98741.97;4910176;29;20458;-83
2023/12/02 02:48:52;;;;;;;28.65;4.40;;;;;;;15.71;71.83;98723.16;4916760;29;20140;-83
2023/12/02 02:51:20;;;;;;;12.85;3.45;;;;;;;15.49;72.25;98691.38;4915898;29;20074;-82
2023/12/02 02:53:48;;;;;;;13.20;3.17;;;;;;;15.93;72.02;98748.53;4900604;29;20055;-82
2023/12/02 02:56:16;;;;;;;18.52;4.03;;;;;;;15.91;71.96;98737.22;4887264;29;20078;-81
2023/12/02 02:58:46;;;;;;;20.38;5.35;;;;;;;15.73;71.93;98721.91;4923823;29;20051;-83
2023/12/02 03:01:13;;;;;;;21.25;4.93;;;;;;;15.85;72.59;98737.25;4921924;29;20059;-80
2023/12/02 03:03:47;;;;;;;24.35;3.58;;;;;;;15.91;72.52;98721.16;4912615;29;20051;-81
2023/12/02 03:06:16;;;;;;;21.35;5.53;;;;;;;15.48;73.61;98692.41;4920191;29;20055;-83
2023/12/02 03:08:47;;;;;;;18.70;4.10;;;;;;;15.69;73.93;98712.66;4913474;29;20047;-83
2023/12/02 03:11:14;;;;;;;27.00;3.95;;;;;;;15.47;73.48;98676.59;4917846;29;20055;-80
2023/12/02 03:13:43;;;;;;;18.63;3.95;;;;;;;15.77;73.65;98706.25;4910106;29;20556;-85
2023/12/02 03:16:10;;;;;;;19.52;3.90;;;;;;;15.85;73.37;98719.38;4914620;29;20138;-84
2023/12/02 03:18:44;;;;;;;14.23;3.25;;;;;;;15.76;73.06;98726.03;4918223;29;20055;-81
2023/12/02 03:21:12;;;;;;;12.10;4.00;;;;;;;15.72;72.65;98692.69;4941278;29;20055;-82
2023/12/02 03:23:38;;;;;;;22.38;3.47;;;;;;;15.69;72.78;98726.03;4924115;29;20549;-82
2023/12/02 03:26:16;;;;;;;17.27;3.60;;;;;;;15.64;73.16;98722.34;4897403;29;20130;-83
2023/12/02 03:29:12;;;;;;;20.23;3.55;;;;;;;15.73;72.99;98732.63;4893549;29;20094;-81
2023/12/02 03:31:48;;;;;;;15.75;3.30;;;;;;;15.62;73.25;98703.84;4899784;29;20056;-84
2023/12/02 03:34:14;;;;;;;11.52;3.42;;;;;;;15.72;72.52;98687.34;4909719;29;20138;-81
2023/12/02 03:36:44;;;;;;;16.75;3.25;;;;;;;15.83;72.46;98708.06;4938033;29;20051;-84
2023/12/02 03:39:12;;;;;;;9.48;2.55;;;;;;;15.70;72.54;98722.31;4912501;29;20729;-82
2023/12/02 03:41:41;;;;;;;15.70;4.00;;;;;;;15.62;72.51;98689.66;4913301;29;20568;-83
2023/12/02 03:44:08;;;;;;;15.07;3.13;;;;;;;15.68;72.02;98680.75;4908698;29;20070;-82
2023/12/02 03:46:44;;;;;;;10.10;2.38;;;;;;;15.46;71.71;98640.16;4917785;29;20055;-83
2023/12/02 03:49:17;;;;;;;12.30;3.70;;;;;;;15.68;71.43;98656.69;4923240;29;20515;-83
2023/12/02 03:51:44;;;;;;;6.47;1.70;;;;;;;15.46;70.73;98597.38;4895851;29;20774;-83
2023/12/02 03:54:14;;;;;;;8.73;2.67;;;;;;;15.73;70.35;98614.09;4884499;29;20044;-82
2023/12/02 03:56:41;;;;;;;9.15;2.65;;;;;;;15.82;69.58;98607.41;4871196;29;20436;-83
2023/12/02 03:59:08;;;;;;;6.40;2.42;;;;;;;15.94;69.85;98640.44;4905654;29;20055;-83
2023/12/02 04:01:44;;;;;;;13.77;2.35;;;;;;;15.34;70.43;98554.47;4926263;28;20047;-82
2023/12/02 04:04:15;;;;;;;7.78;2.17;;;;;;;15.74;70.17;98615.72;4913501;29;20054;-83
2023/12/02 04:06:45;;;;;;;11.55;2.20;;;;;;;15.81;69.86;98605.78;4934105;29;20158;-84
2023/12/02 04:09:14;;;;;;;8.85;2.45;;;;;;;15.26;70.25;98539.53;4915268;29;20716;-84
2023/12/02 04:11:50;;;;;;;17.08;3.13;;;;;;;15.83;68.53;98576.97;4923046;29;20098;-83
2023/12/02 04:14:20;;;;;;;10.70;1.80;;;;;;;15.82;69.00;98569.97;4928084;29;20504;-83
2023/12/02 04:16:50;;;;;;;16.25;2.58;;;;;;;15.78;68.82;98599.03;4921427;29;20471;-83
2023/12/02 04:19:19;;;;;;;4.55;2.83;;;;;;;15.37;69.25;98556.75;4910660;29;20051;-83
2023/12/02 04:21:57;;;;;;;10.43;2.25;;;;;;;15.51;68.80;98594.88;4927891;29;20043;-84
2023/12/02 04:24:26;;;;;;;10.93;2.75;;;;;;;15.54;68.96;98627.38;4916122;29;20048;-83
2023/12/02 04:26:56;;;;;;;5.88;2.47;;;;;;;15.41;69.66;98643.47;4905867;29;20058;-83
2023/12/02 04:29:25;;;;;;;9.40;3.22;;;;;;;15.45;68.99;98651.91;4920409;29;20043;-83
2023/12/02 04:31:56;;;;;;;10.75;2.67;;;;;;;15.36;68.73;98632.63;4922489;29;20047;-83
2023/12/02 04:34:33;;;;;;;11.88;2.35;;;;;;;15.44;68.21;98643.06;4915442;29;20051;-81
2023/12/02 04:37:01;;;;;;;12.00;2.70;;;;;;;15.36;67.93;98629.94;4936812;29;20138;-83
2023/12/02 04:39:31;;;;;;;8.02;3.22;;;;;;;15.38;67.34;98628.69;4917697;29;20062;-83
2023/12/02 04:41:58;;;;;;;7.50;2.25;;;;;;;15.60;67.11;98606.94;4916029;29;20062;-82
2023/12/02 04:44:25;;;;;;;10.70;2.63;;;;;;;15.64;67.17;98557.34;4923504;29;20050;-82
2023/12/02 04:46:53;;;;;;;5.75;2.30;;;;;;;15.28;66.94;98533.97;4911069;29;20111;-84
2023/12/02 04:49:23;;;;;;;7.85;2.45;;;;;;;15.72;66.77;98607.91;4911894;29;20829;-83
2023/12/02 04:51:50;;;;;;;9.60;2.40;;;;;;;15.66;66.88;98618.66;4917675;29;20134;-84
2023/12/02 04:54:17;;;;;;;6.88;2.30;;;;;;;15.47;67.51;98642.63;4893752;29;20055;-84
2023/12/02 04:56:49;;;;;;;6.25;2.55;;;;;;;14.81;67.47;98546.84;4904873;29;20083;-84
2023/12/02 04:59:18;;;;;;;6.97;2.38;;;;;;;15.64;66.01;98628.75;4922198;29;20051;-83
2023/12/02 05:01:45;;;;;;;3.10;1.73;;;;;;;15.09;65.56;98528.53;4934444;28;20102;-83
2023/12/02 05:04:14;;;;;;;4.60;1.42;;;;;;;15.57;64.49;98594.84;4910306;29;20058;-85
2023/12/02 05:06:41;;;;;;;3.45;1.52;;;;;;;15.45;63.70;98574.38;4914308;29;20114;-82
2023/12/02 05:09:09;;;;;;;3.78;1.40;;;;;;;15.16;63.40;98558.72;4920284;29;20474;-82
2023/12/02 05:11:39;;;;;;;2.92;1.20;;;;;;;15.38;62.66;98612.66;4904542;29;20594;-83
2023/12/02 05:14:12;;;;;;;5.78;1.58;;;;;;;15.32;62.82;98628.75;4914101;29;20057;-83
2023/12/02 05:16:42;;;;;;;3.20;1.30;;;;;;;15.29;62.72;98642.53;4932261;29;20417;-83
2023/12/02 05:19:10;;;;;;;2.17;0.95;;;;;;;15.13;61.57;98649.22;4907300;29;20133;-83
2023/12/02 05:21:39;;;;;;;3.10;1.00;;;;;;;14.85;60.07;98585.41;4917014;29;20846;-84
2023/12/02 05:24:08;;;;;;;3.35;1.00;;;;;;;15.35;60.11;98671.09;4899062;29;20143;-82
2023/12/02 05:26:35;;;;;;;2.03;0.70;;;;;;;15.34;59.87;98696.16;4899065;29;20052;-83
2023/12/02 05:29:07;;;;;;;6.35;1.30;;;;;;;14.80;59.99;98634.13;4898723;29;20052;-83
2023/12/02 05:31:37;;;;;;;3.08;1.00;;;;;;;15.18;59.67;98709.00;4894525;29;20047;-82
2023/12/02 05:34:04;;;;;;;2.50;1.27;;;;;;;15.21;60.00;98733.66;4881894;29;20158;-82
2023/12/02 05:36:32;;;;;;;4.35;1.02;;;;;;;15.00;59.88;98743.63;4897104;29;20048;-83
2023/12/02 05:39:03;;;;;;;1.20;0.60;;;;;;;15.18;59.52;98750.94;4890713;29;20048;-83
2023/12/02 05:41:30;;;;;;;4.72;0.95;;;;;;;14.94;59.74;98729.22;4891259;29;20062;-83
2023/12/02 05:43:57;;;;;;;5.68;1.00;;;;;;;15.11;59.12;98761.66;4893171;29;20044;-82
2023/12/02 05:46:25;;;;;;;3.63;0.90;;;;;;;15.31;57.62;98744.72;4892746;29;20533;-83
2023/12/02 05:48:52;;;;;;;4.28;1.00;;;;;;;15.24;57.80;98755.44;4910143;29;20147;-83
2023/12/02 05:51:19;;;;;;;3.60;0.90;;;;;;;15.15;57.68;98765.56;4892437;29;20103;-83
2023/12/02 05:53:46;;;;;;;2.55;2.10;;;;;;;15.10;57.89;98744.00;4920082;29;20052;-83
2023/12/02 05:56:21;;;;;;;2.72;0.90;;;;;;;14.84;58.00;98702.16;4903139;29;20047;-82
2023/12/02 05:58:50;;;;;;;10.00;1.77;;;;;;;15.02;57.82;98725.50;4870469;29;20566;-83
2023/12/02 06:04:02;;;;;;;7.78;1.40;;;;;;;14.92;57.34;98733.97;5049555;28;20522;-82
2023/12/02 06:06:29;;;;;;;1.58;0.50;;;;;;;14.71;57.37;98723.56;5063273;28;20054;-83
2023/12/02 06:08:56;;;;;;;8.48;0.82;;;;;;;14.87;57.46;98765.03;5047552;28;20049;-80
2023/12/02 06:11:26;;;;;;;6.20;1.13;;;;;;;14.80;56.68;98756.19;5042533;28;20072;-83
2023/12/02 06:13:55;;;;;;;3.90;0.90;;;;;;;14.90;56.18;98786.81;5037039;28;20053;-83
2023/12/02 06:16:26;;;;;;;1.63;0.60;;;;;;;14.80;56.27;98790.91;5047575;28;20164;-83
2023/12/02 06:18:55;;;;;;;2.92;1.42;;;;;;;14.52;56.14;98759.91;5042231;28;20477;-83
2023/12/02 06:21:23;;;;;;;1.67;0.80;;;;;;;14.49;55.58;98736.28;5037164;28;20193;-83
2023/12/02 06:23:50;;;;;;;1.90;0.85;;;;;;;14.26;55.26;98702.84;5034571;28;20609;-83
2023/12/02 06:26:17;;;;;;;7.00;1.17;;;;;;;14.21;55.24;98713.31;5033493;28;20057;-82
2023/12/02 06:28:49;;;;;;;1.17;1.05;;;;;;;14.64;55.13;98782.31;5054324;28;20105;-83
2023/12/02 06:31:19;;;;;;;1.88;0.85;;;;;;;14.56;54.63;98731.78;5052565;28;20151;-82
2023/12/02 06:33:49;;;;;;;4.95;0.90;;;;;;;14.58;53.26;98744.94;5064405;28;20574;-81
2023/12/02 06:36:16;;;;;;;3.97;1.20;;;;;;;14.62;53.56;98768.34;5054577;28;20131;-83
2023/12/02 06:38:45;;;;;;;5.05;1.40;;;;;;;14.37;53.99;98743.28;5002825;28;20045;-84
2023/12/02 06:41:14;;;;;;;2.17;0.95;;;;;;;14.63;53.23;98769.97;5030868;28;20521;-82
2023/12/02 06:43:45;;;;;;;10.68;0.90;;;;;;;14.18;53.39;98713.72;5034964;28;20129;-83
2023/12/02 06:46:25;;;;;;;6.75;1.23;;;;;;;14.02;53.44;98703.47;5019165;28;20377;-83
2023/12/02 06:48:55;;;;;;;5.80;0.93;;;;;;;14.50;52.21;98780.66;5018679;28;20056;-83
2023/12/02 06:51:28;;;;;;;3.58;1.10;;;;;;;13.96;53.27;98710.44;5033376;28;20044;-81
2023/12/02 06:53:56;;;;;;;3.28;0.70;;;;;;;14.42;53.38;98794.22;5019511;28;20081;-83
2023/12/02 06:56:24;;;;;;;8.30;1.17;;;;;;;14.48;52.31;98822.75;5022291;28;20243;-82
2023/12/02 06:58:52;;;;;;;2.63;0.70;;;;;;;14.41;51.79;98809.38;5054724;28;20308;-83
2023/12/02 07:01:40;;;;;;;7.13;1.10;;;;;;;14.45;50.92;98815.97;5036454;28;20052;-82
2023/12/02 07:04:11;;;;;;;3.70;1.25;;;;;;;14.38;51.64;98825.81;5020900;28;20062;-83
2023/12/02 07:06:39;;;;;;;6.38;1.23;;;;;;;14.32;51.71;98802.59;5048897;28;20064;-83
2023/12/02 07:09:08;;;;;;;7.70;1.67;;;;;;;14.32;51.16;98805.28;5016730;28;20091;-82
2023/12/02 07:11:41;;;;;;;7.50;1.75;;;;;;;14.36;50.73;98827.88;5033506;28;20283;-83
2023/12/02 07:14:16;;;;;;;3.67;0.93;;;;;;;14.21;51.86;98809.38;5028262;28;20067;-83
2023/12/02 07:16:42;;;;;;;7.80;1.85;;;;;;;14.26;51.46;98817.59;5004443;28;20052;-83
2023/12/02 07:19:09;;;;;;;6.55;1.70;;;;;;;13.88;51.51;98786.16;5030833;28;20464;-83
2023/12/02 07:21:36;;;;;;;11.43;2.65;;;;;;;14.32;51.76;98851.50;5007926;28;20075;-84
2023/12/02 07:24:03;;;;;;;8.18;1.55;;;;;;;14.10;51.97;98836.66;5012821;28;20131;-83
2023/12/02 07:26:30;;;;;;;8.13;2.03;;;;;;;14.34;51.37;98851.28;5020196;28;20053;-82
2023/12/02 07:28:57;;;;;;;4.18;0.93;;;;;;;14.39;51.57;98858.69;4992968;28;20050;-83
2023/12/02 07:31:24;;;;;;;4.63;1.38;;;;;;;14.34;51.50;98856.63;5004237;28;20183;-83
2023/12/02 07:33:56;;;;;;;6.55;2.30;;;;;;;14.18;51.49;98825.00;5026016;28;20059;-83
2023/12/02 07:36:23;;;;;;;5.10;1.15;;;;;;;14.35;50.96;98857.47;5008480;28;20871;-83
2023/12/02 07:38:49;;;;;;;5.85;1.45;;;;;;;14.31;51.22;98873.03;5035033;28;20064;-83
2023/12/02 07:41:21;;;;;;;4.95;1.20;;;;;;;14.15;51.46;98847.56;4980611;28;20540;-83
2023/12/02 07:43:49;;;;;;;9.65;1.38;;;;;;;14.16;51.54;98865.22;5014738;28;20048;-82
2023/12/02 07:46:15;;;;;;;6.20;1.60;;;;;;;14.47;50.37;98888.69;4997635;28;20458;-83
2023/12/02 07:48:42;;;;;;;8.40;1.25;;;;;;;14.41;49.84;98856.63;5016265;28;20041;-82
2023/12/02 07:51:16;;;;;;;4.38;1.05;;;;;;;14.57;49.96;98893.66;5026212;28;20049;-82
2023/12/02 07:53:47;;;;;;;7.13;0.85;;;;;;;14.24;49.99;98870.34;5025194;28;20137;-83
2023/12/02 07:56:17;;;;;;;5.10;1.35;;;;;;;14.50;50.12;98908.81;5018220;28;20056;-82
2023/12/02 07:58:44;;;;;;;10.50;1.65;;;;;;;14.51;49.86;98894.44;5043733;28;20120;-81
2023/12/02 08:01:15;;;;;;;6.07;1.17;;;;;;;14.37;50.27;98874.91;5004850;28;20934;-83
2023/12/02 08:03:47;;;;;;;4.97;1.77;;;;;;;14.17;50.99;98855.34;5011792;28;20183;-82
2023/12/02 08:06:14;;;;;;;9.75;2.30;;;;;;;14.36;50.24;98865.25;5024245;28;20115;-81
2023/12/02 08:08:41;;;;;;;6.78;1.90;;;;;;;14.31;50.42;98865.84;5004899;28;20133;-84
2023/12/02 08:11:08;;;;;;;5.20;1.73;;;;;;;13.76;50.75;98797.59;5027075;28;20056;-83
2023/12/02 08:13:35;;;;;;;8.02;2.03;;;;;;;13.79;51.18;98799.88;5013601;28;20467;-83
2023/12/02 08:16:07;;;;;;;5.90;1.30;;;;;;;14.33;50.98;98893.16;5016214;28;20063;-83
2023/12/02 08:18:33;;;;;;;12.68;2.25;;;;;;;14.32;51.78;98901.38;5022912;28;20053;-83
2023/12/02 08:21:03;;;;;;;10.50;1.52;;;;;;;14.32;51.21;98875.53;5013709;28;20052;-83
2023/12/02 08:23:34;;;;;;;7.63;1.20;;;;;;;13.80;50.79;98786.31;5006506;28;20037;-82
2023/12/02 08:26:02;;;;;;;4.75;1.23;;;;;;;13.05;51.12;98676.97;5009470;28;20478;-83
2023/12/02 08:28:32;;;;;;;5.15;1.35;;;;;;;14.72;49.70;98920.97;5021511;28;20340;-83
2023/12/02 08:31:02;;;;;;;4.10;1.48;;;;;;;14.36;50.61;98872.44;5025428;28;20063;-84
2023/12/02 08:33:33;;;;;;;5.13;1.60;;;;;;;14.49;49.85;98885.78;5022913;28;20045;-82
2023/12/02 08:36:00;;;;;;;9.60;2.03;;;;;;;14.66;50.03;98903.13;5036994;28;20044;-82
2023/12/02 08:38:27;;;;;;;10.95;1.48;;;;;;;14.71;49.91;98873.94;5007442;28;20811;-83
2023/12/02 08:40:53;;;;;;;13.27;2.97;;;;;;;14.72;49.80;98878.25;4998586;28;20668;-82
2023/12/02 08:43:20;;;;;;;6.55;1.27;;;;;;;14.78;49.83;98894.47;4999615;28;20318;-86
2023/12/02 08:45:47;;;;;;;6.53;1.50;;;;;;;14.45;50.31;98857.88;5016946;28;20049;-82
2023/12/02 08:48:14;;;;;;;4.88;1.27;;;;;;;14.74;50.08;98899.41;5020768;28;20052;-81
2023/12/02 08:50:43;;;;;;;12.45;2.40;;;;;;;14.78;49.86;98878.44;5024646;28;20098;-82
2023/12/02 08:53:13;;;;;;;15.70;1.52;;;;;;;14.63;49.69;98850.09;5026047;28;20408;-82
2023/12/02 08:55:46;;;;;;;10.60;1.75;;;;;;;14.79;49.63;98920.19;5035749;28;20335;-82
2023/12/02 08:58:14;;;;;;;11.57;1.92;;;;;;;14.57;50.12;98868.81;5036859;28;20501;-81
2023/12/02 09:00:41;;;;;;;8.57;2.35;;;;;;;13.83;50.00;98748.56;5029432;28;20437;-82
2023/12/02 09:03:14;;;;;;;27.20;2.20;;;;;;;14.74;49.57;98905.59;5030626;28;20056;-82
2023/12/02 09:05:46;;;;;;;12.02;1.83;;;;;;;14.41;50.17;98878.00;5021004;28;20339;-81
2023/12/02 09:08:14;;;;;;;4.32;1.15;;;;;;;14.92;49.64;98944.22;5035646;28;20523;-80
2023/12/02 09:10:44;;;;;;;4.28;1.13;;;;;;;14.64;50.15;98925.72;4996321;28;20074;-81
2023/12/02 09:13:24;;;;;;;10.63;1.88;;;;;;;14.85;49.86;98946.88;5017396;28;20128;-82
2023/12/02 09:15:52;;;;;;;4.13;1.63;;;;;;;14.87;50.15;98960.84;5001724;28;20041;-81
2023/12/02 09:18:50;;;;;;;7.40;1.92;;;;;;;14.58;50.72;98931.84;5017667;28;20212;-82
2023/12/02 09:21:21;;;;;;;11.48;2.60;;;;;;;14.45;51.10;98908.59;5007780;28;20088;-80
2023/12/02 09:23:50;;;;;;;9.73;1.33;;;;;;;14.81;50.47;98926.16;5007482;28;20518;-81
2023/12/02 09:26:25;;;;;;;6.10;1.27;;;;;;;14.75;51.29;98939.25;5015354;28;20076;-81
2023/12/02 09:28:54;;;;;;;7.57;1.13;;;;;;;15.09;50.17;98945.44;5022544;28;20139;-80
2023/12/02 09:31:21;;;;;;;8.52;3.25;;;;;;;14.82;50.42;98909.06;5030619;28;20374;-82
2023/12/02 09:34:00;;;;;;;9.75;2.15;;;;;;;15.17;50.15;98910.50;5026151;28;20314;-81
2023/12/02 09:36:35;;;;;;;4.45;1.00;;;;;;;15.21;50.34;98905.56;5019760;28;20517;-81
2023/12/02 09:39:15;;;;;;;10.07;1.65;;;;;;;15.42;49.32;98943.78;5011496;28;20521;-80
2023/12/02 09:41:48;;;;;;;8.88;2.00;;;;;;;15.13;49.67;98877.19;5013979;28;20115;-81
2023/12/02 09:44:45;;;;;;;14.70;2.33;;;;;;;14.87;52.42;98827.28;5001516;28;20045;-81
2023/12/02 09:47:19;;;;;;;11.70;2.20;;;;;;;15.43;52.83;98897.28;5008831;28;20053;-81
2023/12/02 09:50:07;;;;;;;16.02;1.83;;;;;;;14.96;51.70;98810.00;5008764;28;20136;-82
2023/12/02 09:52:49;;;;;;;8.25;1.90;;;;;;;15.21;51.34;98824.56;5008082;28;20512;-86
2023/12/02 09:55:38;;;;;;;7.93;1.75;;;;;;;15.12;51.09;98814.09;5009140;28;20056;-82
2023/12/02 09:58:30;;;;;;;18.23;2.25;;;;;;;15.15;50.73;98827.03;5019319;28;20410;-84
2023/12/02 10:01:25;;;;;;;15.40;2.15;;;;;;;14.90;51.68;98837.56;5025077;28;20733;-81
2023/12/02 10:04:32;;;;;;;18.10;4.60;;;;;;;14.92;50.58;98864.06;5030986;28;20059;-81
2023/12/02 10:07:25;;;;;;;20.02;3.05;;;;;;;14.86;50.89;98846.19;5021250;28;20147;-81
2023/12/02 10:10:13;;;;;;;10.70;2.03;;;;;;;14.68;51.74;98868.19;5010151;28;20060;-81
2023/12/02 10:12:46;;;;;;;14.07;2.97;;;;;;;14.70;51.47;98882.97;5004428;28;20056;-80
2023/12/02 10:15:16;;;;;;;13.43;2.70;;;;;;;14.68;52.01;98879.69;5003886;28;20049;-80
2023/12/02 10:17:56;;;;;;;9.18;1.95;;;;;;;14.56;51.63;98854.59;5004517;28;20586;-81
2023/12/02 10:20:34;;;;;;;13.13;2.20;;;;;;;14.66;51.19;98860.38;5014461;28;20122;-80
2023/12/02 10:23:08;;;;;;;11.77;2.35;;;;;;;14.61;51.06;98862.84;5013783;28;20613;-81
2023/12/02 10:26:06;;;;;;;10.73;1.85;;;;;;;14.73;50.25;98865.72;5021389;28;20109;-81
2023/12/02 10:29:00;;;;;;;18.15;2.50;;;;;;;14.70;51.32;98856.25;5025267;28;20486;-81
2023/12/02 10:31:30;;;;;;;8.80;1.92;;;;;;;14.58;51.34;98841.88;5032966;28;20132;-81
2023/12/02 10:34:11;;;;;;;7.60;1.92;;;;;;;14.53;50.50;98826.47;5016581;28;20127;-83
2023/12/02 10:36:42;;;;;;;9.27;1.83;;;;;;;14.46;50.30;98820.28;5017752;28;20045;-82
2023/12/02 10:39:17;;;;;;;19.73;2.58;;;;;;;14.78;50.52;98878.44;5003800;28;20552;-81
2023/12/02 10:41:55;;;;;;;5.90;1.50;;;;;;;14.70;50.33;98864.28;5012786;28;20056;-83
2023/12/02 10:44:23;;;;;;;5.97;1.83;;;;;;;14.81;50.21;98884.22;4998748;28;20430;-81
2023/12/02 10:46:58;;;;;;;8.18;1.60;;;;;;;14.82;50.89;98871.69;5021818;28;20048;-81
2023/12/02 10:49:28;;;;;;;7.63;1.65;;;;;;;14.79;50.50;98853.41;5013046;28;20048;-82
2023/12/02 10:52:00;;;;;;;9.02;1.60;;;;;;;14.80;50.28;98852.34;5017427;28;20418;-82
2023/12/02 10:54:36;;;;;;;7.88;1.33;;;;;;;14.52;50.91;98826.66;5012421;28;20049;-81
2023/12/02 10:57:12;;;;;;;4.88;2.40;;;;;;;14.58;50.15;98851.75;5020721;28;20387;-83
2023/12/02 11:00:06;;;;;;;5.82;1.40;;;;;;;14.65;49.99;98893.44;5015770;28;20560;-82
2023/12/02 11:03:00;;;;;;;5.63;0.90;;;;;;;14.70;50.33;98880.28;5014082;28;20736;-82
2023/12/02 11:05:43;;;;;;;7.07;1.98;;;;;;;14.52;50.13;98853.38;5043953;28;20056;-82
2023/12/02 11:08:39;;;;;;;5.72;1.10;;;;;;;14.40;50.35;98852.34;5036459;28;20072;-82
2023/12/02 11:11:14;;;;;;;5.60;1.00;;;;;;;14.62;50.37;98888.53;5016339;28;20053;-81
2023/12/02 11:13:47;;;;;;;2.22;1.00;;;;;;;14.47;50.14;98864.66;5016718;28;20171;-82
2023/12/02 11:16:40;;;;;;;8.40;1.17;;;;;;;14.47;50.39;98877.19;5023593;28;20041;-82
2023/12/02 11:19:39;;;;;;;5.35;1.30;;;;;;;14.18;50.45;98839.16;5001693;28;20479;-82
2023/12/02 11:22:47;;;;;;;5.78;1.45;;;;;;;14.55;50.69;98885.03;5010053;28;20063;-82
2023/12/02 11:25:35;;;;;;;2.65;0.80;;;;;;;14.61;50.02;98881.56;4954994;28;20042;-82
2023/12/02 11:28:12;;;;;;;9.10;1.02;;;;;;;14.35;50.84;98884.16;5026124;28;20133;-81
2023/12/02 11:31:01;;;;;;;5.03;1.67;;;;;;;14.19;50.81;98854.13;5044605;28;20557;-81
2023/12/02 11:33:44;;;;;;;5.85;1.48;;;;;;;14.32;50.79;98878.19;5025535;28;20357;-82
2023/12/02 11:36:36;;;;;;;3.85;1.10;;;;;;;14.17;50.89;98856.19;5029646;28;20810;-83
2023/12/02 11:39:32;;;;;;;8.75;1.48;;;;;;;14.37;50.68;98869.56;5000254;28;20057;-82
2023/12/02 11:42:28;;;;;;;7.03;1.10;;;;;;;14.39;50.65;98901.38;5002118;28;20362;-83
2023/12/02 11:45:21;;;;;;;2.13;1.00;;;;;;;14.46;50.47;98904.91;5003521;28;20316;-81
2023/12/02 11:48:12;;;;;;;4.95;1.25;;;;;;;14.48;50.62;98910.84;4999742;28;20407;-83
2023/12/02 11:51:01;;;;;;;3.47;1.17;;;;;;;14.44;51.69;98944.31;5006231;28;20052;-83
2023/12/02 11:53:37;;;;;;;6.88;1.23;;;;;;;14.41;51.76;98960.75;5006992;28;20052;-83
2023/12/02 11:56:11;;;;;;;4.70;0.93;;;;;;;14.39;52.19;98968.13;5004274;28;20372;-82
2023/12/02 11:59:24;;;;;;;4.18;1.42;;;;;;;14.24;52.54;98985.13;4998852;28;20057;-83